sensor_id;sensor_type;location;lat;lon;timestamp;P1;durP1;ratioP1;P2;durP2;ratioP2
74528;SDS011;63009;52.584;5.932;2023-12-04T00:01:21;25.65;;;12.30;;
74528;SDS011;63009;52.584;5.932;2023-12-04T00:03:46;21.30;;;10.43;;
74528;SDS011;63009;52.584;5.932;2023-12-04T00:06:12;23.40;;;11.02;;
74528;SDS011;63009;52.584;5.932;2023-12-04T00:08:38;24.25;;;10.05;;
74528;SDS011;63009;52.584;5.932;2023-12-04T00:11:04;26.77;;;12.32;;
74528;SDS011;63009;52.584;5.932;2023-12-04T00:13:30;23.67;;;10.82;;
74528;SDS011;63009;52.584;5.932;2023-12-04T00:15:55;28.17;;;12.00;;
74528;SDS011;63009;52.584;5.932;2023-12-04T00:18:21;24.05;;;11.63;;
74528;SDS011;63009;52.584;5.932;2023-12-04T00:20:46;24.53;;;11.60;;
74528;SDS011;63009;52.584;5.932;2023-12-04T00:23:11;25.27;;;12.53;;
74528;SDS011;63009;52.584;5.932;2023-12-04T00:25:37;23.50;;;11.75;;
74528;SDS011;63009;52.584;5.932;2023-12-04T00:28:02;22.70;;;12.10;;
74528;SDS011;63009;52.584;5.932;2023-12-04T00:30:27;23.55;;;11.23;;
74528;SDS011;63009;52.584;5.932;2023-12-04T00:32:53;24.23;;;10.97;;
74528;SDS011;63009;52.584;5.932;2023-12-04T00:35:18;25.97;;;11.67;;
74528;SDS011;63009;52.584;5.932;2023-12-04T00:37:43;24.87;;;11.03;;
74528;SDS011;63009;52.584;5.932;2023-12-04T00:40:09;23.27;;;11.02;;
74528;SDS011;63009;52.584;5.932;2023-12-04T00:42:34;23.48;;;11.45;;
74528;SDS011;63009;52.584;5.932;2023-12-04T00:45:00;25.10;;;11.07;;
74528;SDS011;63009;52.584;5.932;2023-12-04T00:47:25;27.30;;;11.50;;
74528;SDS011;63009;52.584;5.932;2023-12-04T00:49:50;21.67;;;10.37;;
74528;SDS011;63009;52.584;5.932;2023-12-04T00:52:15;27.73;;;12.50;;
74528;SDS011;63009;52.584;5.932;2023-12-04T00:54:41;28.10;;;11.83;;
74528;SDS011;63009;52.584;5.932;2023-12-04T00:57:06;26.60;;;11.70;;
74528;SDS011;63009;52.584;5.932;2023-12-04T00:59:32;27.90;;;12.32;;
74528;SDS011;63009;52.584;5.932;2023-12-04T01:01:57;25.23;;;11.85;;
74528;SDS011;63009;52.584;5.932;2023-12-04T01:04:22;25.77;;;11.23;;
74528;SDS011;63009;52.584;5.932;2023-12-04T01:06:48;27.17;;;12.43;;
74528;SDS011;63009;52.584;5.932;2023-12-04T01:09:13;25.75;;;12.00;;
74528;SDS011;63009;52.584;5.932;2023-12-04T01:11:38;28.97;;;13.70;;
74528;SDS011;63009;52.584;5.932;2023-12-04T01:14:04;27.52;;;13.18;;
74528;SDS011;63009;52.584;5.932;2023-12-04T01:16:29;29.35;;;12.65;;
74528;SDS011;63009;52.584;5.932;2023-12-04T01:18:55;27.60;;;11.85;;
74528;SDS011;63009;52.584;5.932;2023-12-04T01:21:21;27.73;;;12.27;;
74528;SDS011;63009;52.584;5.932;2023-12-04T01:23:46;25.17;;;11.40;;
74528;SDS011;63009;52.584;5.932;2023-12-04T01:26:11;28.53;;;13.53;;
74528;SDS011;63009;52.584;5.932;2023-12-04T01:28:37;25.85;;;11.23;;
74528;SDS011;63009;52.584;5.932;2023-12-04T01:31:02;27.42;;;12.48;;
74528;SDS011;63009;52.584;5.932;2023-12-04T01:33:27;29.65;;;12.88;;
74528;SDS011;63009;52.584;5.932;2023-12-04T01:35:53;28.88;;;12.75;;
74528;SDS011;63009;52.584;5.932;2023-12-04T01:38:18;27.33;;;12.20;;
74528;SDS011;63009;52.584;5.932;2023-12-04T01:40:43;27.80;;;12.45;;
74528;SDS011;63009;52.584;5.932;2023-12-04T01:43:09;26.47;;;13.00;;
74528;SDS011;63009;52.584;5.932;2023-12-04T01:45:34;30.33;;;12.52;;
74528;SDS011;63009;52.584;5.932;2023-12-04T01:47:59;26.58;;;11.63;;
74528;SDS011;63009;52.584;5.932;2023-12-04T01:50:25;29.15;;;12.35;;
74528;SDS011;63009;52.584;5.932;2023-12-04T01:52:51;28.33;;;14.10;;
74528;SDS011;63009;52.584;5.932;2023-12-04T01:55:17;27.40;;;11.95;;
74528;SDS011;63009;52.584;5.932;2023-12-04T01:57:43;24.85;;;11.20;;
74528;SDS011;63009;52.584;5.932;2023-12-04T02:00:09;28.73;;;12.65;;
74528;SDS011;63009;52.584;5.932;2023-12-04T02:02:40;28.95;;;12.90;;
74528;SDS011;63009;52.584;5.932;2023-12-04T02:05:07;28.00;;;11.52;;
74528;SDS011;63009;52.584;5.932;2023-12-04T02:07:34;26.00;;;11.32;;
74528;SDS011;63009;52.584;5.932;2023-12-04T02:10:01;28.05;;;13.70;;
74528;SDS011;63009;52.584;5.932;2023-12-04T02:12:27;26.75;;;11.80;;
74528;SDS011;63009;52.584;5.932;2023-12-04T02:14:53;25.00;;;11.38;;
74528;SDS011;63009;52.584;5.932;2023-12-04T02:17:18;28.65;;;11.25;;
74528;SDS011;63009;52.584;5.932;2023-12-04T02:19:44;28.33;;;11.95;;
74528;SDS011;63009;52.584;5.932;2023-12-04T02:22:10;27.45;;;11.52;;
74528;SDS011;63009;52.584;5.932;2023-12-04T02:24:35;28.23;;;11.73;;
74528;SDS011;63009;52.584;5.932;2023-12-04T02:27:12;24.50;;;11.13;;
74528;SDS011;63009;52.584;5.932;2023-12-04T02:30:01;25.25;;;10.45;;
74528;SDS011;63009;52.584;5.932;2023-12-04T02:32:31;23.60;;;11.10;;
74528;SDS011;63009;52.584;5.932;2023-12-04T02:35:02;23.73;;;10.35;;
74528;SDS011;63009;52.584;5.932;2023-12-04T02:37:29;28.23;;;12.52;;
74528;SDS011;63009;52.584;5.932;2023-12-04T02:39:56;24.13;;;9.98;;
74528;SDS011;63009;52.584;5.932;2023-12-04T02:42:22;23.02;;;10.88;;
74528;SDS011;63009;52.584;5.932;2023-12-04T02:44:49;26.48;;;11.82;;
74528;SDS011;63009;52.584;5.932;2023-12-04T02:47:15;22.17;;;10.40;;
74528;SDS011;63009;52.584;5.932;2023-12-04T02:49:41;25.95;;;11.10;;
74528;SDS011;63009;52.584;5.932;2023-12-04T02:52:06;26.10;;;11.10;;
74528;SDS011;63009;52.584;5.932;2023-12-04T02:54:31;27.13;;;10.95;;
74528;SDS011;63009;52.584;5.932;2023-12-04T02:56:57;27.30;;;11.70;;
74528;SDS011;63009;52.584;5.932;2023-12-04T02:59:22;23.60;;;10.37;;
74528;SDS011;63009;52.584;5.932;2023-12-04T03:01:47;27.63;;;11.47;;
74528;SDS011;63009;52.584;5.932;2023-12-04T03:04:13;27.45;;;11.27;;
74528;SDS011;63009;52.584;5.932;2023-12-04T03:06:38;21.75;;;10.30;;
74528;SDS011;63009;52.584;5.932;2023-12-04T03:09:03;26.20;;;10.33;;
74528;SDS011;63009;52.584;5.932;2023-12-04T03:11:29;27.92;;;12.20;;
74528;SDS011;63009;52.584;5.932;2023-12-04T03:13:55;27.95;;;11.23;;
74528;SDS011;63009;52.584;5.932;2023-12-04T03:16:20;23.40;;;10.98;;
74528;SDS011;63009;52.584;5.932;2023-12-04T03:18:46;26.63;;;10.73;;
74528;SDS011;63009;52.584;5.932;2023-12-04T03:21:11;26.17;;;11.63;;
74528;SDS011;63009;52.584;5.932;2023-12-04T03:23:37;24.23;;;11.48;;
74528;SDS011;63009;52.584;5.932;2023-12-04T03:26:02;20.42;;;9.43;;
74528;SDS011;63009;52.584;5.932;2023-12-04T03:28:28;26.52;;;11.30;;
74528;SDS011;63009;52.584;5.932;2023-12-04T03:30:53;23.92;;;10.02;;
74528;SDS011;63009;52.584;5.932;2023-12-04T03:33:19;23.58;;;10.95;;
74528;SDS011;63009;52.584;5.932;2023-12-04T03:35:44;24.40;;;10.57;;
74528;SDS011;63009;52.584;5.932;2023-12-04T03:38:09;26.63;;;11.85;;
74528;SDS011;63009;52.584;5.932;2023-12-04T03:40:35;22.57;;;9.50;;
74528;SDS011;63009;52.584;5.932;2023-12-04T03:43:00;27.23;;;10.93;;
74528;SDS011;63009;52.584;5.932;2023-12-04T03:45:29;23.65;;;10.30;;
74528;SDS011;63009;52.584;5.932;2023-12-04T03:47:54;20.05;;;9.27;;
74528;SDS011;63009;52.584;5.932;2023-12-04T03:50:19;24.97;;;9.77;;
74528;SDS011;63009;52.584;5.932;2023-12-04T03:52:45;24.55;;;9.40;;
74528;SDS011;63009;52.584;5.932;2023-12-04T03:55:10;22.55;;;10.15;;
74528;SDS011;63009;52.584;5.932;2023-12-04T03:57:35;21.60;;;9.63;;
74528;SDS011;63009;52.584;5.932;2023-12-04T04:00:01;23.85;;;10.07;;
74528;SDS011;63009;52.584;5.932;2023-12-04T04:02:26;25.23;;;10.07;;
74528;SDS011;63009;52.584;5.932;2023-12-04T04:04:52;24.10;;;9.77;;
74528;SDS011;63009;52.584;5.932;2023-12-04T04:07:17;22.43;;;10.50;;
74528;SDS011;63009;52.584;5.932;2023-12-04T04:09:43;24.97;;;11.10;;
74528;SDS011;63009;52.584;5.932;2023-12-04T04:12:09;25.15;;;10.10;;
74528;SDS011;63009;52.584;5.932;2023-12-04T04:14:34;21.35;;;9.27;;
74528;SDS011;63009;52.584;5.932;2023-12-04T04:16:59;21.92;;;9.05;;
74528;SDS011;63009;52.584;5.932;2023-12-04T04:19:25;19.50;;;8.93;;
74528;SDS011;63009;52.584;5.932;2023-12-04T04:21:50;19.27;;;8.60;;
74528;SDS011;63009;52.584;5.932;2023-12-04T04:24:15;21.33;;;9.93;;
74528;SDS011;63009;52.584;5.932;2023-12-04T04:26:41;19.63;;;9.30;;
74528;SDS011;63009;52.584;5.932;2023-12-04T04:29:06;20.58;;;8.82;;
74528;SDS011;63009;52.584;5.932;2023-12-04T04:31:31;20.90;;;9.82;;
74528;SDS011;63009;52.584;5.932;2023-12-04T04:33:57;22.33;;;9.23;;
74528;SDS011;63009;52.584;5.932;2023-12-04T04:36:22;19.90;;;8.33;;
74528;SDS011;63009;52.584;5.932;2023-12-04T04:38:47;21.00;;;8.88;;
74528;SDS011;63009;52.584;5.932;2023-12-04T04:41:13;23.40;;;8.60;;
74528;SDS011;63009;52.584;5.932;2023-12-04T04:43:40;21.75;;;9.63;;
74528;SDS011;63009;52.584;5.932;2023-12-04T04:46:05;20.63;;;9.03;;
74528;SDS011;63009;52.584;5.932;2023-12-04T04:48:30;21.65;;;9.52;;
74528;SDS011;63009;52.584;5.932;2023-12-04T04:50:56;20.10;;;8.30;;
74528;SDS011;63009;52.584;5.932;2023-12-04T04:53:21;19.65;;;9.38;;
74528;SDS011;63009;52.584;5.932;2023-12-04T04:55:47;21.65;;;10.13;;
74528;SDS011;63009;52.584;5.932;2023-12-04T04:58:12;20.02;;;9.63;;
74528;SDS011;63009;52.584;5.932;2023-12-04T05:00:38;21.67;;;9.60;;
74528;SDS011;63009;52.584;5.932;2023-12-04T05:03:03;22.58;;;9.32;;
74528;SDS011;63009;52.584;5.932;2023-12-04T05:05:28;21.60;;;9.40;;
74528;SDS011;63009;52.584;5.932;2023-12-04T05:07:53;23.23;;;9.70;;
74528;SDS011;63009;52.584;5.932;2023-12-04T05:10:19;19.58;;;9.30;;
74528;SDS011;63009;52.584;5.932;2023-12-04T05:12:44;21.67;;;8.55;;
74528;SDS011;63009;52.584;5.932;2023-12-04T05:15:09;21.00;;;8.63;;
74528;SDS011;63009;52.584;5.932;2023-12-04T05:17:35;20.65;;;8.93;;
74528;SDS011;63009;52.584;5.932;2023-12-04T05:20:00;18.58;;;9.43;;
74528;SDS011;63009;52.584;5.932;2023-12-04T05:22:25;19.65;;;10.00;;
74528;SDS011;63009;52.584;5.932;2023-12-04T05:24:51;17.08;;;8.18;;
74528;SDS011;63009;52.584;5.932;2023-12-04T05:27:16;18.08;;;7.85;;
74528;SDS011;63009;52.584;5.932;2023-12-04T05:29:41;19.67;;;8.00;;
74528;SDS011;63009;52.584;5.932;2023-12-04T05:32:07;17.60;;;6.95;;
74528;SDS011;63009;52.584;5.932;2023-12-04T05:34:32;17.60;;;7.90;;
74528;SDS011;63009;52.584;5.932;2023-12-04T05:36:57;22.70;;;8.97;;
74528;SDS011;63009;52.584;5.932;2023-12-04T05:39:23;15.95;;;7.85;;
74528;SDS011;63009;52.584;5.932;2023-12-04T05:41:48;18.30;;;8.37;;
74528;SDS011;63009;52.584;5.932;2023-12-04T05:44:13;18.17;;;8.57;;
74528;SDS011;63009;52.584;5.932;2023-12-04T05:46:39;25.13;;;8.20;;
74528;SDS011;63009;52.584;5.932;2023-12-04T05:49:04;19.42;;;8.52;;
74528;SDS011;63009;52.584;5.932;2023-12-04T05:51:29;18.83;;;8.00;;
74528;SDS011;63009;52.584;5.932;2023-12-04T05:53:55;17.93;;;8.03;;
74528;SDS011;63009;52.584;5.932;2023-12-04T05:56:21;18.75;;;8.15;;
74528;SDS011;63009;52.584;5.932;2023-12-04T05:58:46;17.92;;;7.80;;
74528;SDS011;63009;52.584;5.932;2023-12-04T06:01:11;19.33;;;9.00;;
74528;SDS011;63009;52.584;5.932;2023-12-04T06:03:37;18.97;;;9.33;;
74528;SDS011;63009;52.584;5.932;2023-12-04T06:06:02;19.15;;;8.50;;
74528;SDS011;63009;52.584;5.932;2023-12-04T06:08:28;18.98;;;7.93;;
74528;SDS011;63009;52.584;5.932;2023-12-04T06:10:53;18.60;;;8.93;;
74528;SDS011;63009;52.584;5.932;2023-12-04T06:13:18;17.63;;;7.57;;
74528;SDS011;63009;52.584;5.932;2023-12-04T06:15:44;15.97;;;7.93;;
74528;SDS011;63009;52.584;5.932;2023-12-04T06:18:09;19.10;;;8.35;;
74528;SDS011;63009;52.584;5.932;2023-12-04T06:20:34;17.13;;;8.00;;
74528;SDS011;63009;52.584;5.932;2023-12-04T06:23:02;16.87;;;7.17;;
74528;SDS011;63009;52.584;5.932;2023-12-04T06:25:28;16.80;;;7.63;;
74528;SDS011;63009;52.584;5.932;2023-12-04T06:27:53;19.75;;;7.63;;
74528;SDS011;63009;52.584;5.932;2023-12-04T06:30:19;15.25;;;7.45;;
74528;SDS011;63009;52.584;5.932;2023-12-04T06:32:45;16.05;;;6.32;;
74528;SDS011;63009;52.584;5.932;2023-12-04T06:35:11;17.23;;;7.13;;
74528;SDS011;63009;52.584;5.932;2023-12-04T06:37:38;17.48;;;8.50;;
74528;SDS011;63009;52.584;5.932;2023-12-04T06:40:05;18.10;;;7.45;;
74528;SDS011;63009;52.584;5.932;2023-12-04T06:42:33;17.95;;;7.55;;
74528;SDS011;63009;52.584;5.932;2023-12-04T06:45:01;16.88;;;8.50;;
74528;SDS011;63009;52.584;5.932;2023-12-04T06:47:27;15.50;;;7.65;;
74528;SDS011;63009;52.584;5.932;2023-12-04T06:49:56;18.20;;;7.82;;
74528;SDS011;63009;52.584;5.932;2023-12-04T06:52:22;16.90;;;7.22;;
74528;SDS011;63009;52.584;5.932;2023-12-04T06:54:47;15.65;;;7.00;;
74528;SDS011;63009;52.584;5.932;2023-12-04T06:57:12;17.02;;;7.28;;
74528;SDS011;63009;52.584;5.932;2023-12-04T06:59:39;12.93;;;6.28;;
74528;SDS011;63009;52.584;5.932;2023-12-04T07:02:06;15.40;;;6.90;;
74528;SDS011;63009;52.584;5.932;2023-12-04T07:04:32;15.50;;;7.32;;
74528;SDS011;63009;52.584;5.932;2023-12-04T07:06:57;14.87;;;6.30;;
74528;SDS011;63009;52.584;5.932;2023-12-04T07:09:25;15.55;;;7.05;;
74528;SDS011;63009;52.584;5.932;2023-12-04T07:11:52;16.15;;;6.75;;
74528;SDS011;63009;52.584;5.932;2023-12-04T07:14:17;16.88;;;7.25;;
74528;SDS011;63009;52.584;5.932;2023-12-04T07:16:43;15.67;;;6.83;;
74528;SDS011;63009;52.584;5.932;2023-12-04T07:19:09;15.38;;;6.78;;
74528;SDS011;63009;52.584;5.932;2023-12-04T07:21:35;15.40;;;7.15;;
74528;SDS011;63009;52.584;5.932;2023-12-04T07:24:01;13.43;;;5.65;;
74528;SDS011;63009;52.584;5.932;2023-12-04T07:26:26;18.05;;;7.45;;
74528;SDS011;63009;52.584;5.932;2023-12-04T07:28:51;18.30;;;8.47;;
74528;SDS011;63009;52.584;5.932;2023-12-04T07:31:17;14.57;;;6.28;;
74528;SDS011;63009;52.584;5.932;2023-12-04T07:33:42;13.90;;;5.40;;
74528;SDS011;63009;52.584;5.932;2023-12-04T07:36:08;13.38;;;6.32;;
74528;SDS011;63009;52.584;5.932;2023-12-04T07:38:33;15.38;;;6.20;;
74528;SDS011;63009;52.584;5.932;2023-12-04T07:40:59;15.55;;;6.60;;
74528;SDS011;63009;52.584;5.932;2023-12-04T07:43:24;13.67;;;6.60;;
74528;SDS011;63009;52.584;5.932;2023-12-04T07:45:49;13.02;;;5.70;;
74528;SDS011;63009;52.584;5.932;2023-12-04T07:48:15;14.03;;;5.93;;
74528;SDS011;63009;52.584;5.932;2023-12-04T07:50:41;12.23;;;6.03;;
74528;SDS011;63009;52.584;5.932;2023-12-04T07:53:07;13.80;;;5.97;;
74528;SDS011;63009;52.584;5.932;2023-12-04T07:55:34;15.77;;;5.97;;
74528;SDS011;63009;52.584;5.932;2023-12-04T07:58:02;13.65;;;5.85;;
74528;SDS011;63009;52.584;5.932;2023-12-04T08:00:28;14.70;;;6.78;;
74528;SDS011;63009;52.584;5.932;2023-12-04T08:02:53;13.85;;;6.35;;
74528;SDS011;63009;52.584;5.932;2023-12-04T08:05:18;16.55;;;6.63;;
74528;SDS011;63009;52.584;5.932;2023-12-04T08:07:44;13.10;;;5.38;;
74528;SDS011;63009;52.584;5.932;2023-12-04T08:10:10;14.93;;;6.53;;
74528;SDS011;63009;52.584;5.932;2023-12-04T08:12:35;14.77;;;5.97;;
74528;SDS011;63009;52.584;5.932;2023-12-04T08:15:01;14.20;;;6.97;;
74528;SDS011;63009;52.584;5.932;2023-12-04T08:17:26;12.32;;;5.30;;
74528;SDS011;63009;52.584;5.932;2023-12-04T08:19:52;16.02;;;6.50;;
74528;SDS011;63009;52.584;5.932;2023-12-04T08:22:17;15.13;;;5.70;;
74528;SDS011;63009;52.584;5.932;2023-12-04T08:24:43;14.18;;;5.47;;
74528;SDS011;63009;52.584;5.932;2023-12-04T08:27:08;13.90;;;5.13;;
74528;SDS011;63009;52.584;5.932;2023-12-04T08:29:33;12.95;;;4.70;;
74528;SDS011;63009;52.584;5.932;2023-12-04T08:31:59;12.27;;;5.45;;
74528;SDS011;63009;52.584;5.932;2023-12-04T08:34:25;11.35;;;5.15;;
74528;SDS011;63009;52.584;5.932;2023-12-04T08:36:50;12.70;;;4.82;;
74528;SDS011;63009;52.584;5.932;2023-12-04T08:39:16;12.07;;;4.90;;
74528;SDS011;63009;52.584;5.932;2023-12-04T08:41:44;11.98;;;4.82;;
74528;SDS011;63009;52.584;5.932;2023-12-04T08:44:10;11.63;;;5.60;;
74528;SDS011;63009;52.584;5.932;2023-12-04T08:46:36;12.02;;;4.97;;
74528;SDS011;63009;52.584;5.932;2023-12-04T08:49:01;11.47;;;4.63;;
74528;SDS011;63009;52.584;5.932;2023-12-04T08:51:27;11.75;;;4.88;;
74528;SDS011;63009;52.584;5.932;2023-12-04T08:53:52;15.50;;;6.37;;
74528;SDS011;63009;52.584;5.932;2023-12-04T08:56:17;13.17;;;6.27;;
74528;SDS011;63009;52.584;5.932;2023-12-04T08:58:43;12.30;;;4.57;;
74528;SDS011;63009;52.584;5.932;2023-12-04T09:01:08;11.43;;;4.70;;
74528;SDS011;63009;52.584;5.932;2023-12-04T09:03:33;12.97;;;4.60;;
74528;SDS011;63009;52.584;5.932;2023-12-04T09:05:59;13.65;;;6.00;;
74528;SDS011;63009;52.584;5.932;2023-12-04T09:08:24;14.77;;;8.30;;
74528;SDS011;63009;52.584;5.932;2023-12-04T09:10:51;12.23;;;5.10;;
74528;SDS011;63009;52.584;5.932;2023-12-04T09:13:17;10.15;;;4.25;;
74528;SDS011;63009;52.584;5.932;2023-12-04T09:15:42;13.38;;;5.13;;
74528;SDS011;63009;52.584;5.932;2023-12-04T09:18:07;11.45;;;4.15;;
74528;SDS011;63009;52.584;5.932;2023-12-04T09:20:33;12.40;;;5.72;;
74528;SDS011;63009;52.584;5.932;2023-12-04T09:22:58;12.68;;;4.50;;
74528;SDS011;63009;52.584;5.932;2023-12-04T09:25:23;12.93;;;5.97;;
74528;SDS011;63009;52.584;5.932;2023-12-04T09:27:49;12.52;;;5.85;;
74528;SDS011;63009;52.584;5.932;2023-12-04T09:30:14;11.97;;;4.67;;
74528;SDS011;63009;52.584;5.932;2023-12-04T09:32:39;11.55;;;4.20;;
74528;SDS011;63009;52.584;5.932;2023-12-04T09:35:06;12.43;;;5.90;;
74528;SDS011;63009;52.584;5.932;2023-12-04T09:37:31;12.70;;;5.30;;
74528;SDS011;63009;52.584;5.932;2023-12-04T09:39:57;11.48;;;5.10;;
74528;SDS011;63009;52.584;5.932;2023-12-04T09:42:22;10.80;;;4.50;;
74528;SDS011;63009;52.584;5.932;2023-12-04T09:44:48;10.88;;;4.80;;
74528;SDS011;63009;52.584;5.932;2023-12-04T09:47:19;11.93;;;4.88;;
74528;SDS011;63009;52.584;5.932;2023-12-04T09:49:46;10.82;;;5.07;;
74528;SDS011;63009;52.584;5.932;2023-12-04T09:52:13;15.75;;;5.63;;
74528;SDS011;63009;52.584;5.932;2023-12-04T09:54:39;12.68;;;6.40;;
74528;SDS011;63009;52.584;5.932;2023-12-04T09:57:05;12.88;;;5.20;;
74528;SDS011;63009;52.584;5.932;2023-12-04T09:59:31;11.48;;;5.38;;
74528;SDS011;63009;52.584;5.932;2023-12-04T10:01:57;12.05;;;5.00;;
74528;SDS011;63009;52.584;5.932;2023-12-04T10:04:23;13.80;;;5.70;;
74528;SDS011;63009;52.584;5.932;2023-12-04T10:06:49;11.23;;;5.05;;
74528;SDS011;63009;52.584;5.932;2023-12-04T10:09:16;10.50;;;5.22;;
74528;SDS011;63009;52.584;5.932;2023-12-04T10:11:44;10.93;;;5.32;;
74528;SDS011;63009;52.584;5.932;2023-12-04T10:14:18;10.82;;;5.32;;
74528;SDS011;63009;52.584;5.932;2023-12-04T10:16:44;11.63;;;4.25;;
74528;SDS011;63009;52.584;5.932;2023-12-04T10:21:43;11.50;;;5.53;;
74528;SDS011;63009;52.584;5.932;2023-12-04T10:24:09;13.32;;;6.00;;
74528;SDS011;63009;52.584;5.932;2023-12-04T10:26:35;12.07;;;5.00;;
74528;SDS011;63009;52.584;5.932;2023-12-04T10:29:01;15.70;;;6.05;;
74528;SDS011;63009;52.584;5.932;2023-12-04T10:31:34;13.18;;;6.18;;
74528;SDS011;63009;52.584;5.932;2023-12-04T10:34:00;13.85;;;5.95;;
74528;SDS011;63009;52.584;5.932;2023-12-04T10:36:26;13.07;;;5.75;;
74528;SDS011;63009;52.584;5.932;2023-12-04T10:38:59;12.30;;;4.53;;
74528;SDS011;63009;52.584;5.932;2023-12-04T10:41:25;12.18;;;5.18;;
74528;SDS011;63009;52.584;5.932;2023-12-04T10:43:50;12.52;;;5.82;;
74528;SDS011;63009;52.584;5.932;2023-12-04T10:46:16;12.27;;;5.18;;
74528;SDS011;63009;52.584;5.932;2023-12-04T10:48:41;10.63;;;5.07;;
74528;SDS011;63009;52.584;5.932;2023-12-04T10:51:09;11.75;;;4.90;;
74528;SDS011;63009;52.584;5.932;2023-12-04T10:53:37;12.32;;;5.45;;
74528;SDS011;63009;52.584;5.932;2023-12-04T10:58:32;9.50;;;3.95;;
74528;SDS011;63009;52.584;5.932;2023-12-04T11:00:59;12.40;;;5.63;;
74528;SDS011;63009;52.584;5.932;2023-12-04T11:03:34;10.45;;;5.07;;
74528;SDS011;63009;52.584;5.932;2023-12-04T11:06:03;12.25;;;5.43;;
74528;SDS011;63009;52.584;5.932;2023-12-04T11:08:34;11.20;;;4.95;;
74528;SDS011;63009;52.584;5.932;2023-12-04T11:11:02;12.07;;;5.57;;
74528;SDS011;63009;52.584;5.932;2023-12-04T11:13:30;12.65;;;5.30;;
74528;SDS011;63009;52.584;5.932;2023-12-04T11:15:59;11.57;;;5.18;;
74528;SDS011;63009;52.584;5.932;2023-12-04T11:18:27;13.10;;;5.00;;
74528;SDS011;63009;52.584;5.932;2023-12-04T11:20:58;12.00;;;5.15;;
74528;SDS011;63009;52.584;5.932;2023-12-04T11:23:29;11.65;;;5.50;;
74528;SDS011;63009;52.584;5.932;2023-12-04T11:25:56;11.30;;;4.50;;
74528;SDS011;63009;52.584;5.932;2023-12-04T11:28:23;11.95;;;5.03;;
74528;SDS011;63009;52.584;5.932;2023-12-04T11:30:49;13.45;;;5.85;;
74528;SDS011;63009;52.584;5.932;2023-12-04T11:33:15;11.73;;;4.75;;
74528;SDS011;63009;52.584;5.932;2023-12-04T11:35:40;14.57;;;6.00;;
74528;SDS011;63009;52.584;5.932;2023-12-04T11:38:06;11.23;;;4.93;;
74528;SDS011;63009;52.584;5.932;2023-12-04T11:45:31;14.32;;;5.05;;
74528;SDS011;63009;52.584;5.932;2023-12-04T11:47:59;11.95;;;5.13;;
74528;SDS011;63009;52.584;5.932;2023-12-04T11:50:24;12.73;;;5.28;;
74528;SDS011;63009;52.584;5.932;2023-12-04T11:52:50;13.52;;;4.88;;
74528;SDS011;63009;52.584;5.932;2023-12-04T11:55:16;11.82;;;5.47;;
74528;SDS011;63009;52.584;5.932;2023-12-04T11:57:44;11.40;;;5.00;;
74528;SDS011;63009;52.584;5.932;2023-12-04T12:05:05;13.38;;;5.45;;
74528;SDS011;63009;52.584;5.932;2023-12-04T12:07:32;13.00;;;5.22;;
74528;SDS011;63009;52.584;5.932;2023-12-04T12:09:58;13.38;;;5.60;;
74528;SDS011;63009;52.584;5.932;2023-12-04T12:12:25;12.65;;;5.20;;
74528;SDS011;63009;52.584;5.932;2023-12-04T12:14:51;13.23;;;5.90;;
74528;SDS011;63009;52.584;5.932;2023-12-04T12:17:17;15.05;;;6.28;;
74528;SDS011;63009;52.584;5.932;2023-12-04T12:19:42;12.57;;;6.28;;
74528;SDS011;63009;52.584;5.932;2023-12-04T12:22:08;13.63;;;6.00;;
74528;SDS011;63009;52.584;5.932;2023-12-04T12:24:33;14.63;;;6.07;;
74528;SDS011;63009;52.584;5.932;2023-12-04T12:26:58;12.60;;;5.77;;
74528;SDS011;63009;52.584;5.932;2023-12-04T12:29:24;12.75;;;5.80;;
74528;SDS011;63009;52.584;5.932;2023-12-04T12:31:50;12.25;;;5.45;;
74528;SDS011;63009;52.584;5.932;2023-12-04T12:34:16;13.80;;;6.28;;
74528;SDS011;63009;52.584;5.932;2023-12-04T12:36:42;12.93;;;6.05;;
74528;SDS011;63009;52.584;5.932;2023-12-04T12:39:08;13.50;;;7.07;;
74528;SDS011;63009;52.584;5.932;2023-12-04T12:41:34;13.25;;;6.75;;
74528;SDS011;63009;52.584;5.932;2023-12-04T12:44:00;13.57;;;6.25;;
74528;SDS011;63009;52.584;5.932;2023-12-04T12:46:25;12.13;;;5.55;;
74528;SDS011;63009;52.584;5.932;2023-12-04T12:48:51;10.67;;;4.60;;
74528;SDS011;63009;52.584;5.932;2023-12-04T12:51:17;13.75;;;5.95;;
74528;SDS011;63009;52.584;5.932;2023-12-04T12:53:43;13.13;;;6.63;;
74528;SDS011;63009;52.584;5.932;2023-12-04T12:56:09;12.27;;;5.68;;
74528;SDS011;63009;52.584;5.932;2023-12-04T12:58:35;13.98;;;6.18;;
74528;SDS011;63009;52.584;5.932;2023-12-04T13:01:00;12.93;;;6.63;;
74528;SDS011;63009;52.584;5.932;2023-12-04T13:03:26;16.40;;;7.38;;
74528;SDS011;63009;52.584;5.932;2023-12-04T13:05:53;11.50;;;4.45;;
74528;SDS011;63009;52.584;5.932;2023-12-04T13:08:18;12.70;;;5.68;;
74528;SDS011;63009;52.584;5.932;2023-12-04T13:10:44;11.65;;;5.00;;
74528;SDS011;63009;52.584;5.932;2023-12-04T13:13:11;13.15;;;6.32;;
74528;SDS011;63009;52.584;5.932;2023-12-04T13:15:37;13.15;;;5.20;;
74528;SDS011;63009;52.584;5.932;2023-12-04T13:18:02;12.63;;;5.07;;
74528;SDS011;63009;52.584;5.932;2023-12-04T13:20:28;12.45;;;5.07;;
74528;SDS011;63009;52.584;5.932;2023-12-04T13:22:53;11.70;;;4.60;;
74528;SDS011;63009;52.584;5.932;2023-12-04T13:25:18;12.20;;;5.65;;
74528;SDS011;63009;52.584;5.932;2023-12-04T13:27:45;12.07;;;5.82;;
74528;SDS011;63009;52.584;5.932;2023-12-04T13:30:11;12.40;;;5.60;;
74528;SDS011;63009;52.584;5.932;2023-12-04T13:32:37;11.95;;;4.75;;
74528;SDS011;63009;52.584;5.932;2023-12-04T13:35:05;11.60;;;4.88;;
74528;SDS011;63009;52.584;5.932;2023-12-04T13:37:31;11.23;;;4.43;;
74528;SDS011;63009;52.584;5.932;2023-12-04T13:39:58;10.35;;;4.47;;
74528;SDS011;63009;52.584;5.932;2023-12-04T13:42:26;10.98;;;4.60;;
74528;SDS011;63009;52.584;5.932;2023-12-04T13:45:10;10.52;;;4.47;;
74528;SDS011;63009;52.584;5.932;2023-12-04T13:47:37;11.43;;;4.40;;
74528;SDS011;63009;52.584;5.932;2023-12-04T13:50:03;12.57;;;4.63;;
74528;SDS011;63009;52.584;5.932;2023-12-04T13:52:30;10.23;;;4.43;;
74528;SDS011;63009;52.584;5.932;2023-12-04T13:54:58;12.18;;;4.88;;
74528;SDS011;63009;52.584;5.932;2023-12-04T13:57:24;11.77;;;4.95;;
74528;SDS011;63009;52.584;5.932;2023-12-04T13:59:57;13.38;;;5.53;;
74528;SDS011;63009;52.584;5.932;2023-12-04T14:02:23;11.23;;;5.35;;
74528;SDS011;63009;52.584;5.932;2023-12-04T14:04:49;16.75;;;6.03;;
74528;SDS011;63009;52.584;5.932;2023-12-04T14:07:14;10.80;;;4.75;;
74528;SDS011;63009;52.584;5.932;2023-12-04T14:09:40;9.85;;;3.85;;
74528;SDS011;63009;52.584;5.932;2023-12-04T14:12:06;10.73;;;4.43;;
74528;SDS011;63009;52.584;5.932;2023-12-04T14:14:32;12.35;;;4.78;;
74528;SDS011;63009;52.584;5.932;2023-12-04T14:16:58;12.98;;;5.30;;
74528;SDS011;63009;52.584;5.932;2023-12-04T14:19:24;10.65;;;5.03;;
74528;SDS011;63009;52.584;5.932;2023-12-04T14:21:49;11.43;;;5.45;;
74528;SDS011;63009;52.584;5.932;2023-12-04T14:24:14;11.57;;;4.88;;
74528;SDS011;63009;52.584;5.932;2023-12-04T14:26:40;11.85;;;5.90;;
74528;SDS011;63009;52.584;5.932;2023-12-04T14:29:05;10.80;;;5.40;;
74528;SDS011;63009;52.584;5.932;2023-12-04T14:31:33;10.55;;;4.45;;
74528;SDS011;63009;52.584;5.932;2023-12-04T14:33:58;11.00;;;4.38;;
74528;SDS011;63009;52.584;5.932;2023-12-04T14:36:24;10.90;;;4.93;;
74528;SDS011;63009;52.584;5.932;2023-12-04T14:38:50;10.02;;;4.25;;